createdAt,value
2022-10-23T00:01:45.807Z,18.40
2022-10-23T00:04:17.660Z,18.50
2022-10-23T00:06:45.897Z,17.50
2022-10-23T00:09:17.646Z,16.40
2022-10-23T00:11:48.144Z,18.00
2022-10-23T00:14:19.370Z,15.80
2022-10-23T00:16:47.273Z,16.40
2022-10-23T00:19:15.218Z,17.30
2022-10-23T00:21:43.187Z,16.70
2022-10-23T00:24:11.176Z,16.50
2022-10-23T00:26:40.867Z,15.60
2022-10-23T00:29:10.211Z,16.20
2022-10-23T00:31:38.734Z,16.30
2022-10-23T00:34:08.627Z,16.80
2022-10-23T00:36:37.988Z,16.20
2022-10-23T00:39:06.134Z,16.40
2022-10-23T00:41:34.111Z,16.70
2022-10-23T00:44:22.758Z,17.90
2022-10-23T00:46:51.012Z,16.80
2022-10-23T00:49:20.339Z,17.40
2022-10-23T00:51:53.268Z,17.90
2022-10-23T00:54:25.854Z,17.80
2022-10-23T00:56:59.909Z,18.10
2022-10-23T00:59:29.061Z,19.20
2022-10-23T01:01:57.446Z,18.10
2022-10-23T01:04:36.117Z,18.60
2022-10-23T01:07:19.953Z,17.90
2022-10-23T01:10:37.294Z,19.90
2022-10-23T01:13:33.243Z,18.80
2022-10-23T01:16:44.260Z,19.20
2022-10-23T01:19:43.231Z,18.80
2022-10-23T01:22:38.024Z,19.00
2022-10-23T01:25:47.900Z,18.70
2022-10-23T01:28:26.035Z,18.80
2022-10-23T01:30:54.281Z,19.50
2022-10-23T01:33:28.591Z,19.90
2022-10-23T01:36:04.681Z,19.10
2022-10-23T01:38:46.954Z,19.50
2022-10-23T01:41:21.498Z,19.50
2022-10-23T01:44:06.267Z,20.40
2022-10-23T01:46:35.775Z,20.10
2022-10-23T01:49:08.426Z,21.00
2022-10-23T01:54:09.075Z,18.80
2022-10-23T01:56:39.774Z,19.20
2022-10-23T01:59:16.770Z,17.90
2022-10-23T02:01:47.301Z,18.40
2022-10-23T02:04:21.674Z,18.20
2022-10-23T02:06:49.728Z,18.10
2022-10-23T02:09:17.696Z,17.80
2022-10-23T02:12:09.698Z,16.90
2022-10-23T02:14:54.119Z,16.50
2022-10-23T02:17:40.630Z,16.10
2022-10-23T02:20:14.487Z,15.80
2022-10-23T02:22:49.406Z,16.30
2022-10-23T02:25:28.729Z,15.90
2022-10-23T02:27:58.686Z,16.30
2022-10-23T02:30:27.116Z,15.90
2022-10-23T02:32:55.057Z,15.60
2022-10-23T02:35:26.427Z,14.00
2022-10-23T02:37:56.813Z,15.30
2022-10-23T02:40:30.794Z,14.10
2022-10-23T02:43:02.679Z,13.40
2022-10-23T02:45:36.655Z,13.00
2022-10-23T02:48:22.010Z,13.20
2022-10-23T02:50:58.857Z,14.00
2022-10-23T02:53:46.567Z,13.70
2022-10-23T02:56:38.574Z,14.20
2022-10-23T02:59:44.365Z,13.30
2022-10-23T03:02:38.532Z,14.20
2022-10-23T03:05:10.582Z,12.40
2022-10-23T03:07:40.364Z,12.50
2022-10-23T03:10:09.823Z,12.10
2022-10-23T03:12:38.122Z,12.70
2022-10-23T03:15:07.375Z,13.50
2022-10-23T03:17:35.275Z,12.40
2022-10-23T03:20:04.554Z,12.10
2022-10-23T03:22:32.280Z,12.30
2022-10-23T03:25:00.037Z,12.20
2022-10-23T03:29:56.891Z,11.60
2022-10-23T03:32:24.631Z,11.40
2022-10-23T03:34:53.263Z,10.60
2022-10-23T03:37:22.891Z,10.50
2022-10-23T03:39:51.067Z,10.80
2022-10-23T03:42:18.960Z,11.40
2022-10-23T03:44:46.937Z,11.10
2022-10-23T03:47:14.801Z,11.10
2022-10-23T03:49:42.537Z,10.00
2022-10-23T03:52:10.314Z,10.10
2022-10-23T03:54:38.089Z,10.80
2022-10-23T03:57:05.854Z,10.90
2022-10-23T03:59:33.746Z,10.20
2022-10-23T04:02:01.703Z,10.50
2022-10-23T04:04:29.623Z,10.70
2022-10-23T04:06:57.412Z,10.20
2022-10-23T04:09:25.223Z,10.10
2022-10-23T04:11:52.913Z,9.80
2022-10-23T04:14:20.716Z,10.40
2022-10-23T04:16:48.572Z,9.90
2022-10-23T04:19:17.307Z,10.50
2022-10-23T04:21:45.284Z,10.10
2022-10-23T04:24:13.164Z,11.00
2022-10-23T04:26:41.188Z,9.80
2022-10-23T04:29:08.983Z,10.20
2022-10-23T04:31:42.453Z,10.40
2022-10-23T04:34:10.287Z,11.00
2022-10-23T04:36:38.129Z,9.90
2022-10-23T04:39:06.139Z,9.90
2022-10-23T04:41:33.986Z,9.90
2022-10-23T04:44:01.959Z,11.60
2022-10-23T04:46:29.824Z,9.90
2022-10-23T04:48:57.665Z,10.10
2022-10-23T04:51:25.608Z,11.20
2022-10-23T04:53:53.558Z,9.80
2022-10-23T04:56:21.688Z,10.10
2022-10-23T04:58:49.675Z,10.70
2022-10-23T05:01:17.998Z,10.40
2022-10-23T05:03:46.216Z,11.10
2022-10-23T05:06:14.279Z,10.70
2022-10-23T05:08:43.504Z,10.60
2022-10-23T05:11:12.191Z,10.70
2022-10-23T05:13:40.158Z,11.60
2022-10-23T05:16:08.106Z,11.10
2022-10-23T05:18:55.927Z,10.80
2022-10-23T05:21:32.824Z,11.70
2022-10-23T05:24:02.242Z,11.30
2022-10-23T05:26:31.907Z,11.10
2022-10-23T05:28:59.895Z,12.00
2022-10-23T05:31:27.826Z,11.20
2022-10-23T05:33:56.526Z,11.70
2022-10-23T05:36:25.225Z,11.40
2022-10-23T05:38:53.812Z,11.20
2022-10-23T05:41:21.929Z,10.90
2022-10-23T05:43:49.804Z,11.90
2022-10-23T05:46:18.287Z,12.10
2022-10-23T05:48:46.250Z,11.40
2022-10-23T05:51:21.533Z,11.70
2022-10-23T05:53:50.787Z,11.40
2022-10-23T05:56:19.251Z,11.10
2022-10-23T05:58:47.286Z,11.70
2022-10-23T06:01:16.049Z,12.10
2022-10-23T06:03:44.152Z,11.00
2022-10-23T06:06:12.214Z,12.30
2022-10-23T06:08:40.014Z,12.20
2022-10-23T06:11:14.473Z,12.70
2022-10-23T06:13:45.395Z,12.60
2022-10-23T06:16:18.510Z,12.90
2022-10-23T06:18:47.491Z,12.10
2022-10-23T06:21:17.906Z,12.10
2022-10-23T06:23:47.064Z,12.40
2022-10-23T06:26:18.108Z,13.40
2022-10-23T06:28:46.118Z,12.30
2022-10-23T06:31:20.720Z,13.20
2022-10-23T06:33:48.650Z,13.30
2022-10-23T06:36:16.554Z,13.40
2022-10-23T06:38:44.552Z,14.10
2022-10-23T06:41:22.151Z,13.90
2022-10-23T06:44:29.792Z,14.10
2022-10-23T06:46:56.185Z,13.10
2022-10-23T06:49:22.813Z,13.60
2022-10-23T06:51:52.271Z,13.70
2022-10-23T06:54:18.828Z,13.40
2022-10-23T06:56:45.777Z,13.70
2022-10-23T06:59:13.771Z,13.90
2022-10-23T07:01:58.741Z,13.90
2022-10-23T07:04:26.709Z,13.90
2022-10-23T07:06:57.930Z,13.70
2022-10-23T07:09:26.270Z,13.90
2022-10-23T07:11:54.283Z,15.30
2022-10-23T07:14:22.061Z,14.50
2022-10-23T07:16:49.822Z,14.60
2022-10-23T07:19:17.661Z,13.70
2022-10-23T07:21:45.444Z,13.70
2022-10-23T07:24:13.197Z,14.40
2022-10-23T07:26:41.873Z,14.30
2022-10-23T07:29:09.829Z,13.10
2022-10-23T07:31:37.641Z,14.20
2022-10-23T07:34:06.547Z,14.10
2022-10-23T07:36:34.261Z,14.30
2022-10-23T07:39:02.079Z,13.30
2022-10-23T07:41:29.846Z,13.80
2022-10-23T07:43:57.605Z,12.90
2022-10-23T07:46:25.474Z,12.60
2022-10-23T07:48:53.262Z,13.40
2022-10-23T07:51:24.111Z,12.50
2022-10-23T07:53:51.902Z,12.20
2022-10-23T07:56:26.432Z,12.10
2022-10-23T07:58:56.447Z,13.10
2022-10-23T08:01:32.991Z,12.90
2022-10-23T08:04:03.571Z,13.40
2022-10-23T08:06:31.485Z,12.80
2022-10-23T08:09:05.381Z,13.20
2022-10-23T08:11:37.882Z,12.80
2022-10-23T08:14:08.350Z,12.00
2022-10-23T08:16:38.398Z,12.20
2022-10-23T08:19:08.198Z,12.90
2022-10-23T08:34:30.193Z,12.70
2022-10-23T08:36:57.903Z,12.50
2022-10-23T08:39:27.000Z,13.10
2022-10-23T08:41:55.114Z,13.50
2022-10-23T08:44:29.888Z,13.00
2022-10-23T08:47:12.377Z,14.60
2022-10-23T08:49:55.810Z,13.90
2022-10-23T08:52:39.876Z,14.30
2022-10-23T08:55:52.372Z,14.10
2022-10-23T08:58:33.523Z,13.90
2022-10-23T09:01:02.950Z,13.60
2022-10-23T09:03:30.764Z,13.90
2022-10-23T09:06:13.634Z,12.70
2022-10-23T09:11:44.601Z,11.90
2022-10-23T09:14:21.798Z,11.30
2022-10-23T09:17:17.845Z,11.20
2022-10-23T09:19:46.657Z,11.30
2022-10-23T09:22:14.400Z,11.60
2022-10-23T09:24:44.006Z,10.80
2022-10-23T09:27:17.341Z,10.90
2022-10-23T09:29:53.124Z,11.60
2022-10-23T09:32:35.547Z,10.90
2022-10-23T09:35:05.089Z,11.50
2022-10-23T09:37:37.656Z,14.10
2022-10-23T09:43:23.322Z,12.40
2022-10-23T09:46:17.523Z,10.50
2022-10-23T09:48:45.304Z,11.80
2022-10-23T09:51:21.575Z,11.40
2022-10-23T09:53:58.189Z,11.00
2022-10-23T09:56:55.428Z,10.30
2022-10-23T09:59:26.843Z,9.60
2022-10-23T10:02:00.768Z,10.40
2022-10-23T10:08:39.298Z,8.40
2022-10-23T10:12:16.115Z,7.80
2022-10-23T10:14:51.185Z,7.80
2022-10-23T10:17:45.310Z,8.00
2022-10-23T10:20:58.085Z,7.50
2022-10-23T10:24:01.275Z,8.10
2022-10-23T10:26:57.258Z,7.70
2022-10-23T10:30:12.623Z,7.10
2022-10-23T10:33:16.118Z,7.30
2022-10-23T10:35:50.612Z,6.40
2022-10-23T10:38:44.529Z,5.90
2022-10-23T10:41:49.938Z,6.30
2022-10-23T10:44:48.470Z,5.90
2022-10-23T10:48:08.338Z,5.90
2022-10-23T10:51:06.960Z,5.80
2022-10-23T10:54:18.722Z,5.60
2022-10-23T10:56:47.946Z,5.40
2022-10-23T10:59:38.259Z,6.30
2022-10-23T11:02:27.854Z,5.50
2022-10-23T11:05:33.436Z,4.90
2022-10-23T11:08:20.683Z,4.40
2022-10-23T11:10:53.361Z,4.70
2022-10-23T11:13:39.029Z,4.70
2022-10-23T11:16:34.225Z,4.70
2022-10-23T11:19:15.869Z,4.70
2022-10-23T11:22:06.573Z,4.30
2022-10-23T11:25:02.966Z,4.60
2022-10-23T11:27:58.119Z,4.50
2022-10-23T11:31:24.010Z,4.40
2022-10-23T11:34:36.488Z,4.40
2022-10-23T11:37:09.232Z,4.70
2022-10-23T11:39:39.560Z,5.00
2022-10-23T11:42:07.247Z,4.50
2022-10-23T11:44:35.252Z,5.00
2022-10-23T11:47:29.067Z,5.00
2022-10-23T11:50:08.876Z,4.60
2022-10-23T11:53:15.103Z,4.90
2022-10-23T11:56:13.432Z,5.20
2022-10-23T11:58:58.806Z,5.90
2022-10-23T12:01:45.729Z,5.00
2022-10-23T12:04:13.895Z,6.00
2022-10-23T12:06:49.259Z,6.00
2022-10-23T12:09:47.481Z,5.60
2022-10-23T12:12:28.596Z,6.60
2022-10-23T12:15:14.774Z,5.50
2022-10-23T12:17:50.549Z,5.90
2022-10-23T12:20:47.685Z,5.80
2022-10-23T12:23:44.419Z,5.40
2022-10-23T12:26:35.469Z,5.90
2022-10-23T12:29:52.151Z,5.00
2022-10-23T12:33:05.747Z,4.70
2022-10-23T12:36:03.416Z,4.20
2022-10-23T12:38:34.065Z,4.60
2022-10-23T12:41:16.775Z,4.20
2022-10-23T12:43:55.364Z,4.50
2022-10-23T12:46:43.684Z,4.30
2022-10-23T12:49:19.276Z,3.90
2022-10-23T12:51:57.393Z,4.60
2022-10-23T12:54:26.842Z,3.60
2022-10-23T12:56:55.144Z,4.00
2022-10-23T12:59:44.129Z,4.60
2022-10-23T13:02:20.125Z,3.60
2022-10-23T13:04:54.614Z,3.10
2022-10-23T13:07:29.975Z,3.30
2022-10-23T13:10:00.267Z,4.90
2022-10-23T13:12:34.163Z,3.20
2022-10-23T13:15:08.321Z,3.90
2022-10-23T13:17:44.268Z,4.10
2022-10-23T13:20:18.269Z,3.80
2022-10-23T13:23:14.959Z,2.60
2022-10-23T13:25:42.818Z,2.80
2022-10-23T13:28:42.407Z,2.90
2022-10-23T13:31:10.190Z,3.10
2022-10-23T13:33:47.664Z,2.80
2022-10-23T13:36:15.387Z,3.30
2022-10-23T13:38:45.304Z,3.70
2022-10-23T13:41:20.420Z,2.90
2022-10-23T13:43:48.491Z,2.90
2022-10-23T13:46:22.431Z,3.50
2022-10-23T13:48:50.117Z,3.70
2022-10-23T13:51:25.849Z,3.90
2022-10-23T13:53:55.285Z,4.20
2022-10-23T13:56:25.737Z,4.30
2022-10-23T13:58:54.441Z,4.20
2022-10-23T14:01:28.871Z,4.30
2022-10-23T14:03:58.786Z,3.70
2022-10-23T14:06:26.794Z,3.40
2022-10-23T14:08:54.539Z,3.60
2022-10-23T14:11:22.903Z,4.10
2022-10-23T14:13:50.894Z,4.20
2022-10-23T14:16:21.018Z,4.50
2022-10-23T14:18:49.117Z,4.70
2022-10-23T14:21:20.265Z,5.00
2022-10-23T14:23:49.464Z,4.20
2022-10-23T14:26:24.599Z,4.60
2022-10-23T14:28:54.344Z,4.60
2022-10-23T14:31:22.518Z,4.60
2022-10-23T14:33:57.200Z,4.60
2022-10-23T14:36:28.299Z,4.30
2022-10-23T14:39:02.312Z,4.30
2022-10-23T14:41:33.582Z,4.70
2022-10-23T14:44:01.425Z,4.30
2022-10-23T14:46:29.713Z,6.00
2022-10-23T14:49:01.368Z,5.70
2022-10-23T14:51:30.832Z,5.60
2022-10-23T14:54:04.729Z,5.50
2022-10-23T14:56:36.880Z,6.00
2022-10-23T14:59:05.198Z,6.20
2022-10-23T15:01:37.439Z,5.20
2022-10-23T15:06:35.108Z,5.30
2022-10-23T15:09:04.299Z,5.60
2022-10-23T15:11:33.556Z,5.40
2022-10-23T15:14:01.533Z,5.30
2022-10-23T15:16:29.426Z,5.70
2022-10-23T15:18:57.186Z,4.90
2022-10-23T15:21:25.482Z,5.80
2022-10-23T15:23:54.838Z,5.90
2022-10-23T15:26:24.035Z,7.20
2022-10-23T15:28:58.386Z,6.40
2022-10-23T15:31:29.274Z,7.00
2022-10-23T15:33:57.700Z,7.30
2022-10-23T15:36:26.511Z,8.20
2022-10-23T15:38:54.246Z,8.70
2022-10-23T15:41:34.232Z,9.40
2022-10-23T15:44:03.895Z,10.60
2022-10-23T15:46:31.836Z,13.80
2022-10-23T15:48:59.746Z,14.90
2022-10-23T15:51:27.582Z,13.40
2022-10-23T15:53:57.169Z,12.70
2022-10-23T15:56:25.315Z,16.30
2022-10-23T15:58:53.119Z,17.90
2022-10-23T16:01:21.189Z,17.20
2022-10-23T16:03:50.350Z,35.00
2022-10-23T16:06:21.686Z,38.70
2022-10-23T16:08:49.679Z,34.40
2022-10-23T16:11:21.361Z,31.10
2022-10-23T16:13:49.481Z,33.00
2022-10-23T16:16:18.366Z,29.70
2022-10-23T16:18:46.555Z,33.80
2022-10-23T16:21:22.868Z,45.90
2022-10-23T16:23:52.366Z,36.00
2022-10-23T16:26:21.120Z,21.70
2022-10-23T16:28:57.463Z,16.40
2022-10-23T16:31:26.223Z,24.10
2022-10-23T16:33:54.668Z,22.90
2022-10-23T16:36:22.467Z,25.60
2022-10-23T16:38:50.290Z,25.20
2022-10-23T16:41:17.993Z,37.20
2022-10-23T16:43:45.913Z,34.60
2022-10-23T16:46:18.431Z,37.90
2022-10-23T16:51:17.668Z,30.80
2022-10-23T16:53:46.769Z,26.30
2022-10-23T16:56:17.974Z,27.00
2022-10-23T16:58:46.136Z,31.90
2022-10-23T17:01:18.421Z,52.90
2022-10-23T17:03:48.954Z,44.50
2022-10-23T17:06:21.291Z,59.10
2022-10-23T17:08:49.452Z,52.00
2022-10-23T17:11:31.936Z,41.70
2022-10-23T17:14:11.338Z,64.30
2022-10-23T17:16:47.667Z,62.50
2022-10-23T17:19:43.407Z,44.50
2022-10-23T17:22:11.321Z,40.70
2022-10-23T17:24:40.638Z,39.20
2022-10-23T17:27:08.928Z,43.30
2022-10-23T17:29:44.016Z,38.60
2022-10-23T17:32:12.086Z,36.00
2022-10-23T17:34:40.249Z,35.40
2022-10-23T17:37:09.124Z,35.00
2022-10-23T17:39:37.088Z,38.70
2022-10-23T17:42:08.755Z,35.70
2022-10-23T17:44:36.618Z,42.70
2022-10-23T17:47:04.455Z,55.30
2022-10-23T17:49:32.336Z,51.40
2022-10-23T17:52:00.921Z,64.60
2022-10-23T17:54:33.321Z,91.30
2022-10-23T17:57:01.918Z,89.30
2022-10-23T17:59:30.085Z,87.50
2022-10-23T18:02:00.187Z,71.70
2022-10-23T18:04:28.707Z,71.10
2022-10-23T18:06:58.250Z,77.70
2022-10-23T18:09:26.374Z,86.00
2022-10-23T18:11:54.456Z,88.50
2022-10-23T18:14:25.119Z,88.10
2022-10-23T18:16:55.485Z,89.00
2022-10-23T18:19:23.524Z,94.30
2022-10-23T18:21:59.052Z,94.90
2022-10-23T18:24:27.042Z,95.40
2022-10-23T18:26:55.141Z,95.40
2022-10-23T18:29:23.336Z,100.60
2022-10-23T18:31:51.701Z,104.00
2022-10-23T18:34:23.721Z,103.10
2022-10-23T18:36:54.112Z,109.60
2022-10-23T18:39:25.538Z,106.00
2022-10-23T18:41:57.481Z,96.40
2022-10-23T18:44:29.317Z,105.60
2022-10-23T18:46:58.855Z,108.30
2022-10-23T18:49:28.230Z,99.10
2022-10-23T18:51:58.391Z,101.10
2022-10-23T18:54:29.676Z,100.90
2022-10-23T18:56:57.891Z,97.30
2022-10-23T18:59:26.971Z,82.30
2022-10-23T19:01:55.326Z,75.20
2022-10-23T19:04:23.765Z,66.30
2022-10-23T19:06:52.558Z,60.20
2022-10-23T19:09:20.946Z,59.50
2022-10-23T19:11:49.310Z,61.00
2022-10-23T19:14:17.597Z,61.80
2022-10-23T19:16:59.773Z,52.50
2022-10-23T19:19:33.579Z,58.30
2022-10-23T19:22:03.782Z,58.30
2022-10-23T19:24:39.371Z,59.30
2022-10-23T19:27:08.246Z,65.40
2022-10-23T19:29:39.737Z,60.90
2022-10-23T19:32:08.511Z,62.40
2022-10-23T19:34:36.835Z,60.10
2022-10-23T19:37:05.209Z,63.10
2022-10-23T19:39:33.287Z,65.20
2022-10-23T19:42:01.352Z,65.50
2022-10-23T19:44:29.373Z,67.10
2022-10-23T19:46:57.728Z,65.80
2022-10-23T19:49:25.642Z,67.30
2022-10-23T19:51:53.595Z,69.30
2022-10-23T19:54:22.007Z,70.00
2022-10-23T19:56:50.133Z,60.50
2022-10-23T19:59:19.738Z,64.40
2022-10-23T20:01:48.910Z,55.70
2022-10-23T20:04:18.953Z,36.20
2022-10-23T20:06:48.468Z,31.10
2022-10-23T20:09:16.827Z,27.50
2022-10-23T20:11:45.507Z,32.80
2022-10-23T20:14:14.014Z,31.50
2022-10-23T20:16:50.164Z,30.20
2022-10-23T20:19:21.507Z,31.60
2022-10-23T20:21:50.500Z,30.70
2022-10-23T20:24:19.892Z,32.60
2022-10-23T20:26:52.185Z,28.70
2022-10-23T20:29:21.500Z,33.10
2022-10-23T20:31:49.546Z,33.60
2022-10-23T20:34:19.190Z,37.60
2022-10-23T20:36:49.621Z,39.30
2022-10-23T20:39:21.956Z,37.50
2022-10-23T20:41:50.290Z,36.80
2022-10-23T20:44:18.885Z,36.90
2022-10-23T20:46:46.932Z,40.30
2022-10-23T20:49:15.467Z,38.40
2022-10-23T20:51:43.864Z,37.60
2022-10-23T20:54:11.611Z,39.10
2022-10-23T20:56:39.901Z,40.90
2022-10-23T20:59:14.621Z,36.50
2022-10-23T21:01:49.666Z,36.40
2022-10-23T21:04:21.220Z,39.20
2022-10-23T21:07:11.008Z,38.10
2022-10-23T21:09:40.236Z,36.40
2022-10-23T21:12:08.559Z,34.00
2022-10-23T21:14:36.504Z,32.10
2022-10-23T21:17:04.549Z,30.90
2022-10-23T21:19:42.407Z,38.20
2022-10-23T21:22:11.297Z,37.10
2022-10-23T21:24:39.667Z,34.30
2022-10-23T21:27:07.425Z,34.20
2022-10-23T21:29:35.198Z,30.80
2022-10-23T21:32:03.054Z,32.70
2022-10-23T21:34:31.097Z,32.60
2022-10-23T21:37:14.958Z,33.20
2022-10-23T21:39:44.461Z,34.00
2022-10-23T21:42:14.038Z,31.00
2022-10-23T21:44:41.795Z,33.60
2022-10-23T21:47:09.824Z,30.80
2022-10-23T21:49:37.952Z,32.20
2022-10-23T21:52:05.820Z,34.70
2022-10-23T21:54:33.608Z,35.10
2022-10-23T21:57:03.319Z,30.40
2022-10-23T21:59:33.156Z,27.10
2022-10-23T22:02:03.800Z,26.20
2022-10-23T22:04:31.729Z,26.50
2022-10-23T22:06:59.382Z,24.70
2022-10-23T22:09:27.067Z,22.90
2022-10-23T22:11:55.036Z,23.00
2022-10-23T22:14:23.315Z,22.40
2022-10-23T22:16:52.184Z,22.20
2022-10-23T22:19:22.258Z,22.60
2022-10-23T22:21:50.923Z,23.30
2022-10-23T22:24:18.874Z,23.50
2022-10-23T22:26:50.649Z,23.60
2022-10-23T22:29:23.093Z,24.80
2022-10-23T22:31:51.955Z,23.30
2022-10-23T22:37:17.160Z,23.80
2022-10-23T22:39:44.973Z,22.50
2022-10-23T22:42:12.738Z,22.60
2022-10-23T22:44:40.514Z,27.50
2022-10-23T22:47:08.319Z,29.40
2022-10-23T22:49:36.023Z,31.70
2022-10-23T22:52:04.005Z,29.80
2022-10-23T22:54:31.840Z,26.50
2022-10-23T22:56:59.634Z,27.60
2022-10-23T22:59:27.336Z,24.60
2022-10-23T23:01:55.286Z,24.40
2022-10-23T23:04:39.357Z,26.60
2022-10-23T23:07:11.234Z,31.20
2022-10-23T23:09:41.817Z,33.10
2022-10-23T23:12:12.584Z,34.40
2022-10-23T23:14:41.538Z,34.40
2022-10-23T23:17:10.222Z,33.80
2022-10-23T23:19:37.937Z,23.90
2022-10-23T23:22:05.956Z,22.80
2022-10-23T23:24:33.906Z,21.20
2022-10-23T23:27:01.655Z,22.40
2022-10-23T23:29:29.678Z,20.50
2022-10-23T23:31:57.901Z,19.70
2022-10-23T23:34:25.672Z,21.90
2022-10-23T23:36:53.448Z,19.00
2022-10-23T23:39:21.325Z,18.60
2022-10-23T23:41:49.125Z,21.00
2022-10-23T23:44:17.021Z,19.70
2022-10-23T23:46:44.713Z,22.70
2022-10-23T23:49:12.414Z,22.10
2022-10-23T23:51:40.265Z,22.70
2022-10-23T23:54:07.934Z,21.40
2022-10-23T23:56:35.638Z,19.90
2022-10-23T23:59:03.558Z,20.30
